Time;durP1;ratioP1;P1;durP2;ratioP2;P2;SDS_P1;SDS_P2;PMS_P1;PMS_P2;Temp;Humidity;BMP_temperature;BMP_pressure;BME280_temperature;BME280_humidity;BME280_pressure;Samples;Min_cycle;Max_cycle;Signal;HPM_P1;HPM_P2
2022/07/23 00:01:41;;;;;;;9.27;7.87;;;;;;;22.73;65.68;98666.91;4929932;29;20234;-57
2022/07/23 00:04:08;;;;;;;10.03;7.47;;;;;;;22.63;65.11;98667.50;4930679;29;20811;-56
2022/07/23 00:06:35;;;;;;;9.23;7.73;;;;;;;22.59;66.11;98668.16;4931243;29;20217;-54
2022/07/23 00:09:04;;;;;;;12.93;8.57;;;;;;;22.50;66.39;98662.38;4931120;29;20241;-57
2022/07/23 00:11:31;;;;;;;9.13;8.13;;;;;;;22.44;66.07;98657.94;4929853;29;20234;-57
2022/07/23 00:13:58;;;;;;;9.87;8.30;;;;;;;22.49;65.48;98664.22;4929298;29;20611;-57
2022/07/23 00:16:25;;;;;;;12.33;8.47;;;;;;;22.43;66.03;98670.41;4930942;29;20270;-57
2022/07/23 00:18:52;;;;;;;9.60;8.47;;;;;;;22.41;65.98;98670.66;4926294;29;20258;-57
2022/07/23 00:21:18;;;;;;;8.83;7.67;;;;;;;22.41;65.77;98665.34;4928509;29;20225;-57
2022/07/23 00:23:45;;;;;;;11.40;8.27;;;;;;;22.46;65.50;98677.16;4929197;28;20604;-57
2022/07/23 00:26:13;;;;;;;11.00;8.30;;;;;;;22.42;65.81;98690.06;4927883;29;20223;-58
2022/07/23 00:28:41;;;;;;;9.07;7.77;;;;;;;22.45;65.62;98679.00;4929342;29;20245;-57
2022/07/23 00:31:08;;;;;;;9.20;8.27;;;;;;;22.43;66.06;98673.06;4928072;29;20221;-57
2022/07/23 00:33:35;;;;;;;9.33;8.13;;;;;;;22.38;66.37;98664.97;4928148;29;20245;-56
2022/07/23 00:36:03;;;;;;;9.60;8.40;;;;;;;22.33;66.64;98657.69;4928659;29;20224;-57
2022/07/23 00:38:30;;;;;;;11.57;8.10;;;;;;;22.36;66.53;98656.41;4928701;29;20315;-57
2022/07/23 00:40:57;;;;;;;9.87;7.73;;;;;;;22.41;65.93;98653.88;4928467;29;20225;-57
2022/07/23 00:43:26;;;;;;;12.57;8.60;;;;;;;22.41;65.32;98656.53;4928870;28;20241;-57
2022/07/23 00:45:53;;;;;;;12.20;8.80;;;;;;;22.42;65.25;98655.50;4929274;29;20270;-58
2022/07/23 00:48:20;;;;;;;8.80;7.90;;;;;;;22.37;66.58;98652.69;4928553;29;20273;-55
2022/07/23 00:50:48;;;;;;;9.93;8.67;;;;;;;22.29;66.42;98647.72;4927928;29;20229;-57
2022/07/23 00:53:16;;;;;;;10.80;8.10;;;;;;;22.21;66.64;98641.72;4927700;29;20569;-56
2022/07/23 00:55:42;;;;;;;8.83;7.93;;;;;;;22.12;67.40;98637.75;4928480;29;20246;-57
2022/07/23 00:58:10;;;;;;;8.23;7.37;;;;;;;22.05;67.44;98627.19;4928088;29;20755;-58
2022/07/23 01:00:38;;;;;;;9.10;7.87;;;;;;;21.97;67.96;98628.31;4926608;29;20787;-56
2022/07/23 01:03:05;;;;;;;9.40;8.00;;;;;;;21.90;68.76;98626.78;4928317;29;20222;-57
2022/07/23 01:05:33;;;;;;;10.53;7.90;;;;;;;21.85;69.43;98632.78;4927887;29;20312;-56
2022/07/23 01:08:00;;;;;;;8.83;7.93;;;;;;;21.75;69.79;98612.03;4928371;29;20229;-56
2022/07/23 01:10:46;;;;;;;9.13;8.13;;;;;;;21.63;70.67;98605.91;4936885;29;20611;-57
2022/07/23 01:13:13;;;;;;;10.07;8.00;;;;;;;21.52;71.00;98610.88;4932972;29;20224;-55
2022/07/23 01:15:41;;;;;;;9.70;8.73;;;;;;;21.43;70.90;98616.72;4933321;29;20224;-56
2022/07/23 01:18:09;;;;;;;9.43;8.53;;;;;;;21.34;71.11;98629.47;4934400;29;20734;-56
2022/07/23 01:20:38;;;;;;;11.03;8.47;;;;;;;21.22;71.97;98632.88;4934344;29;20221;-56
2022/07/23 01:23:07;;;;;;;11.00;8.37;;;;;;;21.18;72.16;98637.00;4933934;29;20633;-57
2022/07/23 01:25:35;;;;;;;10.83;8.60;;;;;;;21.09;72.85;98639.13;4934344;29;20189;-57
2022/07/23 01:28:04;;;;;;;9.07;8.10;;;;;;;21.02;72.64;98634.91;4934436;29;20205;-56
2022/07/23 01:30:33;;;;;;;10.87;8.00;;;;;;;20.94;72.12;98630.69;4934229;29;20205;-56
2022/07/23 01:33:01;;;;;;;9.00;7.93;;;;;;;20.88;72.16;98639.53;4934308;29;20204;-55
2022/07/23 01:35:29;;;;;;;8.37;7.50;;;;;;;20.75;72.57;98632.44;4936111;29;20210;-55
2022/07/23 01:38:00;;;;;;;9.53;8.30;;;;;;;20.67;72.92;98635.41;4931521;29;20193;-55
2022/07/23 01:40:29;;;;;;;11.90;8.13;;;;;;;20.59;73.43;98644.41;4933229;29;20220;-56
2022/07/23 01:42:58;;;;;;;9.90;8.40;;;;;;;20.54;73.50;98641.59;4932535;29;20256;-57
2022/07/23 01:45:25;;;;;;;9.47;7.90;;;;;;;20.46;74.34;98646.13;4932653;29;20257;-57
2022/07/23 01:47:53;;;;;;;8.83;7.93;;;;;;;20.52;75.33;98643.66;4932648;29;20189;-56
2022/07/23 01:50:20;;;;;;;10.20;7.97;;;;;;;20.43;75.28;98654.53;4932474;29;20196;-56
2022/07/23 01:53:00;;;;;;;8.57;7.37;;;;;;;20.35;75.16;98655.59;4933148;29;20197;-56
2022/07/23 01:55:29;;;;;;;11.83;8.30;;;;;;;20.31;75.55;98651.75;4932524;29;20209;-55
2022/07/23 01:57:56;;;;;;;9.87;8.40;;;;;;;20.20;74.79;98653.22;4932038;29;20200;-55
2022/07/23 02:00:28;;;;;;;9.27;7.57;;;;;;;20.14;74.66;98645.31;4931315;29;20603;-56
2022/07/23 02:02:55;;;;;;;10.63;7.97;;;;;;;20.08;74.31;98644.34;4932554;29;20206;-56
2022/07/23 02:05:22;;;;;;;8.40;7.40;;;;;;;20.03;75.65;98652.94;4933744;29;20208;-55
2022/07/23 02:07:50;;;;;;;8.83;7.93;;;;;;;20.00;75.78;98665.78;4933032;29;20208;-56
2022/07/23 02:10:17;;;;;;;8.50;7.60;;;;;;;19.96;75.74;98664.59;4933788;29;20205;-55
2022/07/23 02:12:46;;;;;;;8.80;7.73;;;;;;;19.96;75.98;98668.03;4935370;29;20216;-56
2022/07/23 02:15:14;;;;;;;9.43;7.53;;;;;;;19.94;76.03;98671.94;4933737;29;20641;-55
2022/07/23 02:17:42;;;;;;;9.63;7.90;;;;;;;19.97;75.80;98672.31;4932114;29;20279;-55
2022/07/23 02:20:12;;;;;;;10.00;7.80;;;;;;;20.00;75.68;98676.41;4932709;29;20222;-57
2022/07/23 02:22:39;;;;;;;11.10;7.40;;;;;;;20.06;75.27;98672.91;4933614;29;20194;-55
2022/07/23 02:25:10;;;;;;;8.47;7.57;;;;;;;20.16;74.17;98681.19;4932520;29;20207;-55
2022/07/23 02:27:38;;;;;;;11.30;7.33;;;;;;;20.23;72.85;98682.97;4922414;29;20289;-56
2022/07/23 02:30:09;;;;;;;9.10;5.97;;;;;;;20.35;70.51;98689.22;4930653;29;20194;-57
2022/07/23 02:32:37;;;;;;;8.50;6.73;;;;;;;20.46;68.77;98687.75;4923996;29;20196;-53
2022/07/23 02:35:22;;;;;;;8.60;6.50;;;;;;;20.56;68.03;98685.44;4927794;29;20215;-56
2022/07/23 02:37:50;;;;;;;7.83;6.73;;;;;;;20.58;68.18;98679.91;4933617;29;20197;-56
2022/07/23 02:40:18;;;;;;;7.63;6.03;;;;;;;20.58;68.28;98691.34;4933615;29;20201;-55
2022/07/23 02:42:45;;;;;;;7.27;6.53;;;;;;;20.59;67.67;98685.03;4933482;29;20198;-56
2022/07/23 02:45:14;;;;;;;6.97;6.20;;;;;;;20.54;69.00;98690.16;4933292;29;20218;-56
2022/07/23 02:47:43;;;;;;;8.43;7.30;;;;;;;20.48;70.06;98691.81;4933286;29;20221;-56
2022/07/23 02:50:11;;;;;;;9.83;6.93;;;;;;;20.44;70.00;98690.59;4933371;29;20205;-57
2022/07/23 02:52:40;;;;;;;7.73;6.40;;;;;;;20.49;69.01;98685.47;4933482;29;20288;-56
2022/07/23 02:55:08;;;;;;;7.57;6.70;;;;;;;20.49;68.59;98684.69;4932891;29;20249;-56
2022/07/23 02:57:36;;;;;;;7.80;6.50;;;;;;;20.49;68.58;98688.13;4933440;29;20195;-56
2022/07/23 03:00:05;;;;;;;9.67;6.73;;;;;;;20.56;67.55;98697.88;4933316;29;20686;-57
2022/07/23 03:02:34;;;;;;;7.67;6.13;;;;;;;20.63;66.66;98683.56;4933388;29;20538;-56
2022/07/23 03:05:01;;;;;;;6.80;5.80;;;;;;;20.66;65.71;98692.91;4931158;29;20307;-57
2022/07/23 03:07:29;;;;;;;6.60;5.53;;;;;;;20.69;65.70;98687.19;4943417;29;20223;-57
2022/07/23 03:09:56;;;;;;;8.00;6.13;;;;;;;20.77;66.72;98689.59;4930384;29;20671;-55
2022/07/23 03:12:24;;;;;;;8.83;6.00;;;;;;;20.68;67.26;98706.78;4934840;29;20200;-54
2022/07/23 03:14:52;;;;;;;6.97;6.27;;;;;;;20.60;67.94;98697.25;4932953;29;20287;-56
2022/07/23 03:17:19;;;;;;;8.17;6.53;;;;;;;20.54;68.16;98694.63;4933563;29;20194;-55
2022/07/23 03:19:49;;;;;;;9.90;6.30;;;;;;;20.44;68.10;98698.56;4935296;29;20252;-56
2022/07/23 03:22:16;;;;;;;9.87;7.10;;;;;;;20.39;68.72;98695.75;4937422;29;20218;-56
2022/07/23 03:24:56;;;;;;;6.80;6.13;;;;;;;20.32;68.83;98692.31;4937227;29;20304;-56
2022/07/23 03:27:28;;;;;;;8.50;6.37;;;;;;;20.23;69.40;98696.22;4930551;29;20202;-56
2022/07/23 03:29:58;;;;;;;7.60;6.70;;;;;;;20.17;69.48;98689.97;4937340;29;20211;-56
2022/07/23 03:32:26;;;;;;;7.50;5.77;;;;;;;20.13;69.07;98699.34;4937327;29;20215;-56
2022/07/23 03:34:55;;;;;;;6.40;5.73;;;;;;;20.09;69.55;98704.28;4936721;29;20248;-56
2022/07/23 03:37:23;;;;;;;6.87;5.93;;;;;;;20.07;69.22;98701.03;4938554;29;20197;-56
2022/07/23 03:39:49;;;;;;;8.27;6.50;;;;;;;19.99;70.12;98704.72;4934981;29;20191;-56
2022/07/23 03:42:17;;;;;;;6.23;5.63;;;;;;;19.97;70.37;98705.97;4931353;29;20697;-56
2022/07/23 03:44:47;;;;;;;6.57;5.87;;;;;;;19.94;69.58;98707.19;4936593;29;20694;-57
2022/07/23 03:47:13;;;;;;;7.70;5.17;;;;;;;19.94;68.88;98709.81;4936945;29;20205;-57
2022/07/23 03:49:42;;;;;;;10.67;5.90;;;;;;;19.91;69.11;98708.41;4936934;29;20253;-57
2022/07/23 03:52:10;;;;;;;7.40;6.00;;;;;;;19.90;69.88;98700.66;4936742;29;20199;-58
2022/07/23 03:54:37;;;;;;;6.37;5.67;;;;;;;19.89;69.39;98709.63;4937885;29;20586;-55
2022/07/23 03:57:04;;;;;;;6.60;5.60;;;;;;;19.88;69.75;98707.97;4936659;29;20914;-54
2022/07/23 03:59:32;;;;;;;6.47;5.57;;;;;;;19.87;69.53;98717.78;4936866;29;20199;-55
2022/07/23 04:01:59;;;;;;;7.10;5.70;;;;;;;19.88;69.90;98714.09;4936820;29;20285;-53
2022/07/23 04:04:26;;;;;;;6.63;5.70;;;;;;;19.91;69.37;98716.38;4936432;29;20210;-55
2022/07/23 04:06:54;;;;;;;8.13;6.53;;;;;;;19.98;69.72;98718.19;4936739;29;20198;-55
2022/07/23 04:09:22;;;;;;;6.57;5.57;;;;;;;19.98;69.94;98716.31;4936681;29;20196;-56
2022/07/23 04:11:49;;;;;;;8.13;5.53;;;;;;;20.02;69.68;98714.09;4936972;29;20594;-56
2022/07/23 04:14:17;;;;;;;8.67;5.90;;;;;;;20.01;68.93;98707.16;4935962;29;20218;-56
2022/07/23 04:17:02;;;;;;;7.80;5.33;;;;;;;20.06;69.22;98713.44;4937990;29;20228;-55
2022/07/23 04:19:31;;;;;;;7.10;5.60;;;;;;;20.08;68.85;98712.41;4936419;29;20204;-55
2022/07/23 04:22:05;;;;;;;7.90;5.30;;;;;;;20.13;66.98;98716.09;4934882;29;20192;-55
2022/07/23 04:24:36;;;;;;;5.83;5.23;;;;;;;20.16;66.01;98722.78;4930455;29;20271;-56
2022/07/23 04:27:04;;;;;;;6.83;5.50;;;;;;;20.11;66.75;98720.78;4936827;29;20657;-56
2022/07/23 04:29:32;;;;;;;6.13;5.47;;;;;;;20.13;67.17;98725.84;4936726;29;20240;-55
2022/07/23 04:31:59;;;;;;;5.73;5.17;;;;;;;20.19;66.26;98735.59;4936167;29;20199;-56
2022/07/23 04:34:27;;;;;;;6.97;4.90;;;;;;;20.26;66.80;98735.56;4937077;29;20216;-57
2022/07/23 04:36:55;;;;;;;7.13;5.60;;;;;;;20.29;67.69;98743.09;4937167;29;20279;-56
2022/07/23 04:39:23;;;;;;;6.50;5.50;;;;;;;20.30;67.66;98736.78;4937253;29;20201;-57
2022/07/23 04:41:52;;;;;;;5.73;5.20;;;;;;;20.34;66.62;98737.97;4937094;29;20194;-56
2022/07/23 04:44:38;;;;;;;5.87;5.33;;;;;;;20.41;66.20;98730.81;4938435;29;20233;-57
2022/07/23 04:47:06;;;;;;;7.60;5.57;;;;;;;20.47;66.03;98732.59;4936941;29;20198;-56
2022/07/23 04:49:34;;;;;;;6.60;5.73;;;;;;;20.50;66.89;98726.06;4935846;29;20203;-55
2022/07/23 04:52:01;;;;;;;6.70;6.00;;;;;;;20.51;66.14;98727.69;4935875;29;20230;-56
2022/07/23 04:54:29;;;;;;;7.23;5.77;;;;;;;20.59;65.41;98724.81;4935681;29;20716;-55
2022/07/23 04:56:58;;;;;;;7.77;5.63;;;;;;;20.70;66.61;98731.25;4935795;29;20219;-56
2022/07/23 04:59:26;;;;;;;6.33;5.60;;;;;;;20.81;66.65;98732.41;4935950;29;20248;-56
2022/07/23 05:01:59;;;;;;;6.80;5.40;;;;;;;20.91;65.94;98727.44;4935909;29;20197;-53
2022/07/23 05:04:26;;;;;;;6.00;5.30;;;;;;;21.04;65.54;98733.69;4936803;29;20212;-56
2022/07/23 05:06:54;;;;;;;6.97;5.43;;;;;;;20.97;65.64;98736.41;4935825;29;20203;-55
2022/07/23 05:09:21;;;;;;;9.00;5.67;;;;;;;21.01;65.74;98740.25;4933681;29;20195;-56
2022/07/23 05:11:48;;;;;;;5.23;4.80;;;;;;;21.14;65.98;98752.59;4931807;29;20203;-55
2022/07/23 05:14:17;;;;;;;6.70;5.30;;;;;;;21.38;66.75;98737.66;4935126;29;20218;-55
2022/07/23 05:16:49;;;;;;;7.77;5.53;;;;;;;21.27;65.35;98721.66;4935320;29;20216;-54
2022/07/23 05:19:22;;;;;;;7.10;5.73;;;;;;;21.27;65.97;98714.47;4935373;29;20197;-56
2022/07/23 05:21:50;;;;;;;7.03;5.73;;;;;;;21.36;66.69;98718.47;4927365;29;20225;-54
2022/07/23 05:24:16;;;;;;;5.40;4.70;;;;;;;21.38;66.72;98716.41;4935177;29;20222;-55
2022/07/23 05:26:44;;;;;;;5.67;4.67;;;;;;;21.41;66.01;98715.19;4935462;29;20229;-55
2022/07/23 05:29:11;;;;;;;7.73;5.83;;;;;;;21.55;65.46;98713.19;4935291;29;20339;-55
2022/07/23 05:31:40;;;;;;;6.93;5.30;;;;;;;21.75;66.18;98701.56;4936727;29;20560;-54
2022/07/23 05:34:07;;;;;;;6.77;4.93;;;;;;;21.99;65.07;98704.38;4934805;29;20273;-56
2022/07/23 05:36:36;;;;;;;6.33;5.70;;;;;;;22.04;64.59;98709.81;4935145;29;20214;-55
2022/07/23 05:39:04;;;;;;;7.53;5.70;;;;;;;22.00;64.28;98721.94;4935142;29;20205;-56
2022/07/23 05:41:34;;;;;;;8.57;5.50;;;;;;;21.96;64.73;98733.00;4935137;29;20197;-56
2022/07/23 05:44:03;;;;;;;6.13;5.53;;;;;;;21.89;65.51;98732.28;4933325;29;20638;-56
2022/07/23 05:46:31;;;;;;;6.70;6.00;;;;;;;21.89;65.37;98755.38;4934281;29;20190;-54
2022/07/23 05:49:05;;;;;;;6.30;5.57;;;;;;;21.78;63.09;98783.50;4934682;29;20292;-56
2022/07/23 05:51:56;;;;;;;9.03;5.10;;;;;;;21.58;62.92;98824.31;4934675;29;20669;-55
2022/07/23 05:54:42;;;;;;;6.83;6.13;;;;;;;21.55;63.46;98845.19;4928120;29;20222;-54
2022/07/23 05:57:10;;;;;;;7.37;5.93;;;;;;;21.53;64.98;98837.41;4933641;29;20212;-56
2022/07/23 05:59:37;;;;;;;11.83;6.67;;;;;;;21.48;66.80;98818.66;4934875;29;20197;-55
2022/07/23 06:02:04;;;;;;;22.93;9.67;;;;;;;21.08;78.18;98807.34;4934724;29;20200;-55
2022/07/23 06:04:33;;;;;;;22.97;9.93;;;;;;;20.79;81.93;98812.22;4934276;29;20231;-56
2022/07/23 06:07:23;;;;;;;13.70;7.90;;;;;;;20.57;84.38;98827.63;4935497;29;20254;-56
2022/07/23 06:09:51;;;;;;;16.47;8.17;;;;;;;20.46;87.13;98807.06;4934596;29;20199;-56
2022/07/23 06:12:20;;;;;;;14.70;7.93;;;;;;;20.45;89.11;98797.50;4934652;29;20202;-56
2022/07/23 06:14:49;;;;;;;11.63;8.43;;;;;;;20.39;91.27;98793.81;4934115;29;20222;-56
2022/07/23 06:17:16;;;;;;;12.20;8.30;;;;;;;20.49;89.78;98790.75;4934400;29;20690;-56
2022/07/23 06:19:45;;;;;;;8.87;7.67;;;;;;;20.64;90.42;98795.75;4934334;29;20267;-56
2022/07/23 06:22:12;;;;;;;10.97;8.63;;;;;;;20.77;90.50;98782.44;4935715;29;20557;-56
2022/07/23 06:24:39;;;;;;;9.80;8.20;;;;;;;20.86;89.98;98777.69;4934032;29;20217;-53
2022/07/23 06:27:07;;;;;;;9.27;8.23;;;;;;;20.97;87.95;98783.34;4934267;29;20258;-55
2022/07/23 06:29:35;;;;;;;8.77;7.87;;;;;;;20.90;89.73;98786.03;4934255;29;20287;-56
2022/07/23 06:32:02;;;;;;;9.67;8.03;;;;;;;20.85;90.74;98794.63;4934483;29;20192;-56
2022/07/23 06:34:30;;;;;;;9.80;8.00;;;;;;;20.92;91.61;98800.72;4933212;29;20703;-55
2022/07/23 06:37:17;;;;;;;10.70;7.60;;;;;;;20.82;91.22;98810.97;4935763;29;20271;-55
2022/07/23 06:39:47;;;;;;;10.60;8.73;;;;;;;20.65;91.09;98808.81;4935545;29;20209;-56
2022/07/23 06:42:14;;;;;;;11.00;8.57;;;;;;;20.55;91.60;98807.63;4934267;29;20248;-56
2022/07/23 06:44:45;;;;;;;9.13;8.23;;;;;;;20.70;91.43;98807.34;4933781;29;20220;-56
2022/07/23 06:47:16;;;;;;;10.87;8.40;;;;;;;20.77;92.29;98797.50;4933972;29;20196;-56
2022/07/23 06:49:43;;;;;;;9.50;7.83;;;;;;;21.00;86.97;98794.34;4933898;29;20567;-56
2022/07/23 06:52:11;;;;;;;8.90;7.83;;;;;;;21.21;88.72;98789.69;4935355;29;20201;-56
2022/07/23 06:54:40;;;;;;;8.73;7.60;;;;;;;21.53;87.75;98789.63;4933056;29;20248;-56
2022/07/23 06:57:06;;;;;;;8.73;7.83;;;;;;;21.69;87.95;98793.59;4935288;29;20567;-56
2022/07/23 06:59:36;;;;;;;9.20;7.90;;;;;;;21.76;87.46;98801.50;4933989;29;20258;-56
2022/07/23 07:02:03;;;;;;;9.33;7.30;;;;;;;21.67;80.37;98804.44;4933782;29;20771;-55
2022/07/23 07:04:31;;;;;;;8.50;7.20;;;;;;;21.25;87.34;98812.09;4933447;29;20245;-57
2022/07/23 07:06:59;;;;;;;8.60;7.70;;;;;;;21.12;89.04;98817.53;4935380;29;20527;-56
2022/07/23 07:09:26;;;;;;;8.50;7.53;;;;;;;21.06;89.65;98845.75;4931729;29;20201;-56
2022/07/23 07:11:58;;;;;;;12.77;8.17;;;;;;;20.86;90.64;98841.34;4924641;29;20215;-56
2022/07/23 07:14:25;;;;;;;11.10;7.67;;;;;;;20.86;93.25;98828.09;4934625;29;20223;-55
2022/07/23 07:16:52;;;;;;;8.83;7.60;;;;;;;20.89;93.82;98824.22;4934908;29;20217;-56
2022/07/23 07:19:19;;;;;;;11.27;9.20;;;;;;;20.89;92.92;98819.69;4925772;29;20204;-56
2022/07/23 07:21:46;;;;;;;9.53;8.30;;;;;;;21.09;92.63;98810.81;4925715;29;20196;-56
2022/07/23 07:24:13;;;;;;;9.97;8.10;;;;;;;21.28;90.01;98819.63;4926026;29;20228;-56
2022/07/23 07:26:41;;;;;;;10.43;9.00;;;;;;;21.53;89.57;98829.47;4934815;29;20544;-55
2022/07/23 07:29:10;;;;;;;10.73;8.33;;;;;;;21.56;84.23;98831.69;4934028;29;20209;-55
2022/07/23 07:31:37;;;;;;;10.80;8.53;;;;;;;21.79;84.04;98830.28;4926898;29;20203;-56
2022/07/23 07:34:04;;;;;;;10.73;8.77;;;;;;;21.93;86.82;98839.75;4925320;29;20216;-56
2022/07/23 07:36:32;;;;;;;11.57;8.50;;;;;;;22.02;88.04;98840.25;4920680;29;20213;-56
2022/07/23 07:39:00;;;;;;;10.63;8.60;;;;;;;22.15;87.68;98836.66;4926913;29;20236;-56
2022/07/23 07:41:26;;;;;;;13.70;9.33;;;;;;;22.24;87.58;98838.00;4926709;29;20707;-56
2022/07/23 07:43:53;;;;;;;9.33;8.07;;;;;;;22.49;85.78;98846.94;4926545;29;20297;-56
2022/07/23 07:46:23;;;;;;;8.40;7.60;;;;;;;22.65;84.41;98854.31;4915636;29;20653;-57
2022/07/23 07:48:51;;;;;;;10.87;8.30;;;;;;;22.84;83.81;98854.25;4931012;29;20196;-56
2022/07/23 07:51:17;;;;;;;8.40;7.60;;;;;;;22.89;81.55;98859.72;4926764;29;20200;-56
2022/07/23 07:53:45;;;;;;;9.47;7.70;;;;;;;23.10;76.99;98860.25;4927627;29;20221;-56
2022/07/23 07:56:12;;;;;;;8.53;7.63;;;;;;;23.24;76.24;98858.25;4923364;29;20195;-54
2022/07/23 07:58:39;;;;;;;9.77;8.23;;;;;;;23.48;80.94;98859.09;4929520;29;20716;-57
2022/07/23 08:01:07;;;;;;;11.80;8.10;;;;;;;23.67;79.97;98859.78;4924928;29;20192;-56
2022/07/23 08:03:36;;;;;;;11.40;9.20;;;;;;;23.61;75.51;98860.72;4928465;29;20206;-56
2022/07/23 08:06:03;;;;;;;10.43;8.53;;;;;;;23.61;75.74;98857.25;4920803;29;20201;-57
2022/07/23 08:08:30;;;;;;;11.63;8.70;;;;;;;23.49;77.07;98859.88;4933380;29;20245;-56
2022/07/23 08:10:57;;;;;;;10.50;8.30;;;;;;;23.55;77.58;98867.78;4929133;29;20208;-56
2022/07/23 08:13:25;;;;;;;13.17;8.63;;;;;;;23.32;78.00;98863.22;4937738;29;20243;-56
2022/07/23 08:15:53;;;;;;;11.40;8.57;;;;;;;23.38;80.22;98867.63;4930131;29;20200;-56
2022/07/23 08:18:24;;;;;;;12.23;8.47;;;;;;;23.52;77.52;98867.41;4930344;29;20222;-56
2022/07/23 08:20:53;;;;;;;10.33;7.93;;;;;;;23.33;77.31;98866.69;4937766;29;20199;-56
2022/07/23 08:23:21;;;;;;;8.53;7.63;;;;;;;23.40;75.10;98870.06;4929978;29;20570;-57
2022/07/23 08:25:47;;;;;;;9.17;7.63;;;;;;;23.29;73.05;98869.03;4929978;29;20195;-57
2022/07/23 08:28:16;;;;;;;11.87;8.43;;;;;;;23.38;76.24;98864.97;4927051;29;20194;-56
2022/07/23 08:30:48;;;;;;;8.87;8.07;;;;;;;23.48;80.87;98869.75;4933106;29;20188;-56
2022/07/23 08:33:16;;;;;;;13.37;8.20;;;;;;;23.68;79.07;98876.59;4929537;29;20218;-56
2022/07/23 08:35:46;;;;;;;11.20;8.07;;;;;;;23.86;74.56;98875.69;4923177;29;20204;-56
2022/07/23 08:38:16;;;;;;;14.00;9.23;;;;;;;23.74;70.19;98889.00;4921096;29;20222;-56
2022/07/23 08:40:46;;;;;;;9.90;8.90;;;;;;;23.55;72.11;98888.28;4931020;29;20693;-56
2022/07/23 08:43:15;;;;;;;11.80;8.43;;;;;;;23.57;70.92;98888.84;4933927;29;20232;-56
2022/07/23 08:45:45;;;;;;;13.43;9.83;;;;;;;23.55;69.31;98902.44;4918366;29;20718;-56
2022/07/23 08:48:13;;;;;;;9.60;8.60;;;;;;;23.53;72.20;98893.03;4928556;29;20198;-55
2022/07/23 08:50:45;;;;;;;11.80;9.10;;;;;;;23.69;71.31;98897.69;4931052;29;20681;-56
2022/07/23 08:53:13;;;;;;;12.47;8.63;;;;;;;23.71;66.51;98894.81;4928223;29;20220;-56
2022/07/23 08:55:45;;;;;;;11.17;8.77;;;;;;;23.82;66.07;98904.66;4937373;29;20191;-56
2022/07/23 08:58:13;;;;;;;10.10;8.67;;;;;;;23.74;64.35;98895.13;4925946;29;20290;-56
2022/07/23 09:00:40;;;;;;;10.50;8.43;;;;;;;23.71;63.50;98889.47;4930964;29;20205;-56
2022/07/23 09:03:07;;;;;;;10.77;8.43;;;;;;;23.64;63.04;98889.56;4933070;29;20359;-53
2022/07/23 09:05:35;;;;;;;10.43;7.87;;;;;;;23.45;61.26;98886.19;4933236;29;20188;-52
2022/07/23 09:08:15;;;;;;;8.57;7.77;;;;;;;23.63;59.83;98871.94;4935341;29;20607;-55
2022/07/23 09:10:50;;;;;;;10.60;8.83;;;;;;;23.58;61.16;98883.31;4931965;29;20265;-52
2022/07/23 09:13:41;;;;;;;9.70;7.93;;;;;;;23.79;62.90;98890.97;4934765;29;20223;-52
2022/07/23 09:16:12;;;;;;;12.23;8.37;;;;;;;24.07;62.28;98881.50;4928960;29;20511;-54
2022/07/23 09:18:43;;;;;;;10.30;8.60;;;;;;;24.13;62.03;98881.38;4934448;29;20784;-55
2022/07/23 09:21:16;;;;;;;12.10;9.50;;;;;;;24.31;61.13;98888.44;4924787;29;20717;-54
2022/07/23 09:23:45;;;;;;;9.97;9.03;;;;;;;24.15;61.82;98887.28;4927926;28;20224;-53
2022/07/23 09:26:33;;;;;;;11.17;9.67;;;;;;;24.17;63.14;98889.72;4926791;29;20227;-52
2022/07/23 09:29:05;;;;;;;9.37;8.47;;;;;;;24.27;65.57;98883.78;4918231;29;20312;-52
2022/07/23 09:31:36;;;;;;;13.37;9.90;;;;;;;24.19;64.36;98890.31;4916764;29;20237;-52
2022/07/23 09:34:15;;;;;;;13.03;9.53;;;;;;;24.43;64.05;98892.91;4916883;29;20250;-53
2022/07/23 09:36:42;;;;;;;10.70;8.93;;;;;;;24.71;61.39;98897.50;4918132;29;20224;-55
2022/07/23 09:39:10;;;;;;;10.70;9.43;;;;;;;24.76;63.15;98899.47;4917006;28;21956;-55
2022/07/23 09:41:41;;;;;;;10.03;9.03;;;;;;;24.98;61.25;98896.16;4917611;29;20231;-54
2022/07/23 09:44:17;;;;;;;10.10;8.60;;;;;;;25.52;60.13;98901.09;4917204;28;20788;-55
2022/07/23 09:46:45;;;;;;;9.80;8.80;;;;;;;25.96;59.17;98902.31;4922179;29;20236;-55
2022/07/23 09:49:19;;;;;;;9.03;8.13;;;;;;;26.34;58.35;98906.03;4928480;28;20287;-52
2022/07/23 09:51:49;;;;;;;10.17;8.50;;;;;;;26.52;55.61;98902.25;4928810;29;20208;-55
2022/07/23 09:54:34;;;;;;;11.67;8.50;;;;;;;26.33;57.04;98904.44;4928282;28;20248;-54
2022/07/23 09:57:07;;;;;;;11.77;8.93;;;;;;;26.15;55.82;98898.31;4926677;29;20236;-54
2022/07/23 09:59:36;;;;;;;9.33;8.13;;;;;;;26.23;56.64;98903.22;4927416;28;20648;-53
2022/07/23 10:02:05;;;;;;;11.07;9.13;;;;;;;26.35;53.68;98895.09;4927571;29;20293;-55
2022/07/23 10:04:41;;;;;;;12.20;9.67;;;;;;;26.34;57.31;98896.16;4928473;29;20252;-53
2022/07/23 10:07:24;;;;;;;10.77;8.40;;;;;;;26.43;54.64;98888.50;4927040;29;20218;-56
2022/07/23 10:11:03;;;;;;;10.67;8.17;;;;;;;26.60;56.03;98891.09;5110901;27;20650;-55
2022/07/23 10:13:54;;;;;;;10.40;7.97;;;;;;;26.83;53.60;98894.59;5106170;28;20677;-54
2022/07/23 10:16:31;;;;;;;11.60;8.53;;;;;;;26.87;51.94;98893.03;5088194;28;20342;-52
2022/07/23 10:18:57;;;;;;;7.82;7.13;;;;;;;27.19;50.47;98894.16;5087492;28;20212;-54
2022/07/23 10:21:28;;;;;;;8.47;7.67;;;;;;;27.24;51.34;98894.19;5091591;28;20209;-56
2022/07/23 10:24:17;;;;;;;8.80;7.45;;;;;;;27.13;51.54;98897.84;5089233;28;20219;-54
2022/07/23 10:26:54;;;;;;;8.90;6.80;;;;;;;27.64;47.94;98900.16;5084922;28;20266;-55
2022/07/23 10:29:36;;;;;;;6.63;5.88;;;;;;;27.23;47.04;98897.94;5086796;28;20244;-52
2022/07/23 10:32:15;;;;;;;6.40;5.75;;;;;;;27.47;43.88;98886.88;5086204;28;20688;-53
2022/07/23 10:34:51;;;;;;;6.45;5.32;;;;;;;27.26;42.76;98895.56;5088312;28;20645;-54
2022/07/23 10:37:40;;;;;;;6.70;6.00;;;;;;;27.60;43.26;98896.38;5091983;28;20294;-55
2022/07/23 10:40:13;;;;;;;7.10;6.30;;;;;;;27.87;44.82;98896.31;5091137;28;20282;-53
2022/07/23 10:42:42;;;;;;;7.95;5.65;;;;;;;27.84;42.73;98899.53;5090586;28;20695;-54
2022/07/23 10:45:26;;;;;;;6.15;5.55;;;;;;;27.76;42.41;98894.63;5088849;27;20273;-56
2022/07/23 10:47:54;;;;;;;6.68;5.97;;;;;;;27.90;41.58;98897.66;5090548;28;20218;-55
2022/07/23 10:50:23;;;;;;;6.88;6.00;;;;;;;28.14;40.69;98898.91;5087818;28;20236;-58
2022/07/23 10:53:13;;;;;;;5.93;5.43;;;;;;;27.94;42.92;98899.59;5091410;28;20584;-56
2022/07/23 10:55:46;;;;;;;8.88;6.28;;;;;;;28.12;41.95;98898.38;5082977;28;20304;-53
2022/07/23 10:58:20;;;;;;;6.57;5.82;;;;;;;28.31;41.30;98903.31;5081571;28;20808;-57
2022/07/23 11:00:48;;;;;;;6.85;6.15;;;;;;;28.04;42.67;98896.16;5090384;28;20227;-55
2022/07/23 11:03:35;;;;;;;7.82;6.13;;;;;;;28.09;42.86;98896.19;5085977;28;20208;-56
2022/07/23 11:06:03;;;;;;;9.40;7.30;;;;;;;27.50;43.54;98900.63;5090631;28;20240;-54
2022/07/23 11:08:30;;;;;;;6.60;6.00;;;;;;;27.88;41.23;98899.81;5084873;28;20213;-57
2022/07/23 11:11:10;;;;;;;7.45;6.72;;;;;;;27.75;41.48;98899.19;5089740;27;20318;-56
2022/07/23 11:13:45;;;;;;;6.53;5.85;;;;;;;27.95;43.55;98900.38;5088952;28;20266;-56
2022/07/23 11:16:16;;;;;;;8.40;6.28;;;;;;;28.04;40.35;98901.50;5085813;28;20473;-55
2022/07/23 11:19:05;;;;;;;8.43;5.72;;;;;;;27.84;42.37;98903.00;5089942;28;21580;-56
2022/07/23 11:21:59;;;;;;;7.10;6.50;;;;;;;28.13;42.91;98899.16;5079943;28;20244;-56
2022/07/23 11:24:27;;;;;;;7.43;6.72;;;;;;;27.88;43.28;98897.13;5031401;28;20239;-56
2022/07/23 11:27:03;;;;;;;8.02;7.22;;;;;;;28.05;44.81;98889.72;5081984;28;20618;-53
2022/07/23 11:29:41;;;;;;;9.77;7.32;;;;;;;28.10;46.04;98897.78;5075189;28;20295;-55
2022/07/23 11:32:35;;;;;;;8.55;6.53;;;;;;;27.85;44.00;98901.94;5075571;28;20224;-56
2022/07/23 11:35:03;;;;;;;8.98;7.43;;;;;;;28.07;44.70;98892.94;5070860;28;20229;-56
2022/07/23 11:37:38;;;;;;;10.55;7.32;;;;;;;28.21;44.93;98896.00;5079577;28;20243;-55
2022/07/23 11:40:09;;;;;;;9.68;7.20;;;;;;;28.47;43.75;98895.31;5078267;28;20596;-53
2022/07/23 11:42:38;;;;;;;7.60;6.90;;;;;;;28.41;42.89;98900.66;5076585;28;20226;-53
2022/07/23 11:45:09;;;;;;;9.37;6.80;;;;;;;27.77;41.47;98891.69;5075909;28;20240;-56
2022/07/23 11:47:36;;;;;;;7.50;6.60;;;;;;;27.97;39.66;98891.03;5062436;28;20228;-56